createdAt,value
2022-10-08T00:01:28.538Z,98922.53
2022-10-08T00:03:57.646Z,98920.38
2022-10-08T00:06:26.912Z,98915.03
2022-10-08T00:08:56.601Z,98921.41
2022-10-08T00:11:27.433Z,98918.53
2022-10-08T00:13:56.460Z,98917.00
2022-10-08T00:16:26.986Z,98921.25
2022-10-08T00:18:57.142Z,98924.75
2022-10-08T00:21:28.040Z,98923.66
2022-10-08T00:23:59.113Z,98923.19
2022-10-08T00:26:30.413Z,98921.25
2022-10-08T00:28:59.657Z,98923.94
2022-10-08T00:31:30.334Z,98926.47
2022-10-08T00:34:00.073Z,98925.19
2022-10-08T00:36:31.450Z,98930.50
2022-10-08T00:39:04.524Z,98917.28
2022-10-08T00:41:35.901Z,98915.97
2022-10-08T00:44:04.958Z,98914.50
2022-10-08T00:46:37.712Z,98915.75
2022-10-08T00:49:12.152Z,98921.78
2022-10-08T00:51:44.058Z,98915.22
2022-10-08T00:54:13.886Z,98911.38
2022-10-08T00:56:44.160Z,98905.47
2022-10-08T00:59:14.001Z,98905.69
2022-10-08T01:01:43.479Z,98904.44
2022-10-08T01:04:12.707Z,98901.44
2022-10-08T01:06:49.760Z,98900.31
2022-10-08T01:09:22.619Z,98901.75
2022-10-08T01:11:58.472Z,98908.63
2022-10-08T01:14:39.318Z,98906.38
2022-10-08T01:17:14.124Z,98911.16
2022-10-08T01:20:20.944Z,98910.31
2022-10-08T01:23:20.918Z,98907.22
2022-10-08T01:25:57.314Z,98899.78
2022-10-08T01:28:33.573Z,98896.25
2022-10-08T01:31:07.266Z,98901.34
2022-10-08T01:33:43.959Z,98895.31
2022-10-08T01:36:14.105Z,98896.84
2022-10-08T01:38:45.070Z,98901.34
2022-10-08T01:41:16.100Z,98903.16
2022-10-08T01:43:52.513Z,98899.19
2022-10-08T01:46:24.921Z,98901.34
2022-10-08T01:48:56.990Z,98901.91
2022-10-08T01:51:32.893Z,98892.06
2022-10-08T01:54:03.318Z,98892.09
2022-10-08T01:56:34.624Z,98885.59
2022-10-08T01:59:10.227Z,98885.78
2022-10-08T02:01:50.767Z,98885.09
2022-10-08T02:04:34.138Z,98880.88
2022-10-08T02:07:07.379Z,98882.00
2022-10-08T02:09:37.554Z,98882.69
2022-10-08T02:12:06.293Z,98879.53
2022-10-08T02:14:38.700Z,98883.00
2022-10-08T02:17:15.259Z,98887.69
2022-10-08T02:19:52.917Z,98881.28
2022-10-08T02:22:24.268Z,98879.34
2022-10-08T02:24:56.136Z,98880.91
2022-10-08T02:27:30.579Z,98877.50
2022-10-08T02:30:08.027Z,98876.34
2022-10-08T02:32:39.759Z,98872.25
2022-10-08T02:35:13.188Z,98872.22
2022-10-08T02:37:45.945Z,98887.13
2022-10-08T02:40:18.600Z,98868.56
2022-10-08T02:42:53.151Z,98871.75
2022-10-08T02:45:25.723Z,98883.25
2022-10-08T02:48:00.150Z,98888.44
2022-10-08T02:50:30.062Z,98886.78
2022-10-08T02:52:58.617Z,98884.78
2022-10-08T02:55:36.752Z,98892.81
2022-10-08T02:58:09.454Z,98883.97
2022-10-08T03:00:43.529Z,98886.63
2022-10-08T03:03:14.429Z,98893.22
2022-10-08T03:05:45.272Z,98891.47
2022-10-08T03:08:15.347Z,98881.88
2022-10-08T03:10:44.733Z,98891.09
2022-10-08T03:13:13.806Z,98900.78
2022-10-08T03:15:44.651Z,98898.69
2022-10-08T03:18:13.277Z,98904.44
2022-10-08T03:20:45.939Z,98896.00
2022-10-08T03:23:17.009Z,98896.44
2022-10-08T03:25:45.490Z,98901.75
2022-10-08T03:28:13.446Z,98899.38
2022-10-08T03:30:41.406Z,98905.53
2022-10-08T03:33:10.550Z,98910.47
2022-10-08T03:35:38.366Z,98909.75
2022-10-08T03:38:06.158Z,98919.28
2022-10-08T03:40:36.093Z,98930.66
2022-10-08T03:43:03.858Z,98924.97
2022-10-08T03:45:31.579Z,98925.75
2022-10-08T03:47:59.414Z,98932.06
2022-10-08T03:50:28.874Z,98928.69
2022-10-08T03:52:56.621Z,98930.06
2022-10-08T03:55:24.395Z,98927.97
2022-10-08T03:57:52.748Z,98935.44
2022-10-08T04:00:20.514Z,98945.66
2022-10-08T04:02:52.255Z,98940.50
2022-10-08T04:05:20.091Z,98942.56
2022-10-08T04:07:49.157Z,98951.03
2022-10-08T04:10:17.017Z,98945.13
2022-10-08T04:12:44.973Z,98943.00
2022-10-08T04:15:12.879Z,98950.75
2022-10-08T04:20:47.795Z,98946.50
2022-10-08T04:23:15.521Z,98947.38
2022-10-08T04:25:50.697Z,98950.31
2022-10-08T04:28:18.897Z,98949.59
2022-10-08T04:30:56.160Z,98951.69
2022-10-08T04:33:23.952Z,98949.75
2022-10-08T04:35:57.462Z,98955.91
2022-10-08T04:38:27.812Z,98957.19
2022-10-08T04:41:06.483Z,98962.94
2022-10-08T04:43:34.972Z,98961.66
2022-10-08T04:46:02.933Z,98961.66
2022-10-08T04:48:33.543Z,98958.31
2022-10-08T04:51:10.005Z,98964.22
2022-10-08T04:53:38.754Z,98968.13
2022-10-08T04:56:11.717Z,98961.66
2022-10-08T04:58:39.699Z,98963.09
2022-10-08T05:01:08.657Z,98975.16
2022-10-08T05:03:40.679Z,98970.94
2022-10-08T05:06:10.603Z,98973.19
2022-10-08T05:08:40.652Z,98982.00
2022-10-08T05:11:09.207Z,98984.56
2022-10-08T05:13:39.339Z,98984.97
2022-10-08T05:16:08.258Z,98986.41
2022-10-08T05:18:37.374Z,98980.78
2022-10-08T05:21:06.508Z,98990.59
2022-10-08T05:23:36.474Z,98988.34
2022-10-08T05:26:12.780Z,98984.13
2022-10-08T05:28:40.664Z,98988.47
2022-10-08T05:31:08.466Z,98990.47
2022-10-08T05:33:36.437Z,98984.94
2022-10-08T05:36:08.951Z,98988.63
2022-10-08T05:38:37.986Z,98994.63
2022-10-08T05:41:10.645Z,98995.19
2022-10-08T05:43:38.429Z,98993.22
2022-10-08T05:46:06.665Z,99000.97
2022-10-08T05:48:37.081Z,98995.63
2022-10-08T05:51:06.340Z,99002.63
2022-10-08T05:53:36.376Z,99006.28
2022-10-08T05:56:07.520Z,99010.97
2022-10-08T05:58:37.041Z,99017.19
2022-10-08T06:01:07.025Z,99018.91
2022-10-08T06:03:34.787Z,99017.19
2022-10-08T06:06:03.945Z,99013.81
2022-10-08T06:08:31.941Z,99023.94
2022-10-08T06:11:03.489Z,99027.47
2022-10-08T06:13:33.346Z,99029.59
2022-10-08T06:16:03.938Z,99029.84
2022-10-08T06:18:34.446Z,99042.03
2022-10-08T06:21:04.299Z,99043.88
2022-10-08T06:23:32.538Z,99045.44
2022-10-08T06:26:03.926Z,99037.44
2022-10-08T06:28:34.194Z,99044.13
2022-10-08T06:31:02.340Z,99044.13
2022-10-08T06:33:30.674Z,99039.66
2022-10-08T06:36:03.196Z,99045.56
2022-10-08T06:38:30.966Z,99042.78
2022-10-08T06:40:59.070Z,99044.75
2022-10-08T06:43:27.347Z,99049.28
2022-10-08T06:45:59.843Z,99058.53
2022-10-08T06:48:28.560Z,99062.75
2022-10-08T06:51:00.565Z,99061.94
2022-10-08T06:53:28.589Z,99068.94
2022-10-08T06:56:00.191Z,99073.44
2022-10-08T06:58:28.137Z,99070.63
2022-10-08T07:01:05.111Z,99075.56
2022-10-08T07:03:35.806Z,99079.63
2022-10-08T07:06:04.910Z,99077.31
2022-10-08T07:08:32.727Z,99079.69
2022-10-08T07:11:06.620Z,99088.09
2022-10-08T07:13:34.736Z,99090.16
2022-10-08T07:16:05.294Z,99089.25
2022-10-08T07:18:34.512Z,99092.59
2022-10-08T07:21:02.311Z,99089.72
2022-10-08T07:23:30.090Z,99095.44
2022-10-08T07:25:59.109Z,99098.19
2022-10-08T07:28:28.424Z,99098.81
2022-10-08T07:30:56.259Z,99110.66
2022-10-08T07:33:29.811Z,99103.50
2022-10-08T07:36:06.853Z,99106.47
2022-10-08T07:38:34.618Z,99111.47
2022-10-08T07:41:02.395Z,99115.38
2022-10-08T07:43:30.224Z,99115.56
2022-10-08T07:45:58.162Z,99114.78
2022-10-08T07:48:33.681Z,99113.88
2022-10-08T07:51:09.389Z,99121.78
2022-10-08T07:53:37.553Z,99127.72
2022-10-08T07:56:05.942Z,99125.13
2022-10-08T07:58:34.189Z,99125.72
2022-10-08T08:01:03.879Z,99132.00
2022-10-08T08:03:33.804Z,99127.94
2022-10-08T08:06:02.757Z,99131.13
2022-10-08T08:08:30.461Z,99131.44
2022-10-08T08:10:58.847Z,99128.16
2022-10-08T08:13:26.918Z,99129.06
2022-10-08T08:15:59.214Z,99133.69
2022-10-08T08:18:29.883Z,99137.66
2022-10-08T08:21:02.991Z,99142.00
2022-10-08T08:23:31.298Z,99141.06
2022-10-08T08:26:01.648Z,99146.69
2022-10-08T08:28:30.199Z,99149.47
2022-10-08T08:31:08.080Z,99154.19
2022-10-08T08:33:35.789Z,99153.06
2022-10-08T08:36:05.646Z,99153.25
2022-10-08T08:38:36.146Z,99157.09
2022-10-08T08:41:13.159Z,99158.41
2022-10-08T08:43:42.557Z,99158.13
2022-10-08T08:46:17.316Z,99162.06
2022-10-08T08:48:46.783Z,99169.97
2022-10-08T08:51:17.532Z,99164.06
2022-10-08T08:53:47.843Z,99164.31
2022-10-08T08:56:23.026Z,99159.19
2022-10-08T08:58:58.528Z,99166.38
2022-10-08T09:01:34.008Z,99168.13
2022-10-08T09:04:07.626Z,99162.78
2022-10-08T09:06:39.176Z,99163.69
2022-10-08T09:09:21.401Z,99165.72
2022-10-08T09:11:49.318Z,99173.88
2022-10-08T09:14:36.956Z,99165.06
2022-10-08T09:17:15.100Z,99170.88
2022-10-08T09:19:43.613Z,99173.41
2022-10-08T09:22:21.494Z,99171.25
2022-10-08T09:24:52.779Z,99168.13
2022-10-08T09:27:20.676Z,99178.53
2022-10-08T09:29:48.454Z,99179.28
2022-10-08T09:32:19.329Z,99180.28
2022-10-08T09:34:48.917Z,99173.94
2022-10-08T09:37:24.024Z,99179.38
2022-10-08T09:40:18.579Z,99185.19
2022-10-08T09:42:46.765Z,99186.59
2022-10-08T09:45:33.876Z,99188.47
2022-10-08T09:48:18.571Z,99191.78
2022-10-08T09:50:53.836Z,99190.34
2022-10-08T09:53:25.075Z,99191.44
2022-10-08T09:55:59.982Z,99197.19
2022-10-08T09:58:33.280Z,99190.09
2022-10-08T10:01:04.846Z,99186.75
2022-10-08T10:03:33.486Z,99193.38
2022-10-08T10:06:01.611Z,99192.94
2022-10-08T10:08:50.807Z,99193.53
2022-10-08T10:11:25.162Z,99199.81
2022-10-08T10:13:53.028Z,99194.06
2022-10-08T10:16:25.755Z,99201.44
2022-10-08T10:18:58.332Z,99202.09
2022-10-08T10:21:36.045Z,99201.78
2022-10-08T10:24:41.691Z,99201.00
2022-10-08T10:27:13.223Z,99196.09
2022-10-08T10:29:52.285Z,99205.22
2022-10-08T10:32:23.947Z,99189.75
2022-10-08T10:35:00.043Z,99186.19
2022-10-08T10:37:35.253Z,99198.81
2022-10-08T10:40:22.340Z,99201.03
2022-10-08T10:42:57.819Z,99188.75
2022-10-08T10:45:30.760Z,99186.50
2022-10-08T10:47:58.780Z,99187.47
2022-10-08T10:50:33.113Z,99182.38
2022-10-08T10:53:11.896Z,99190.44
2022-10-08T10:55:54.674Z,99192.38
2022-10-08T10:58:47.764Z,99198.69
2022-10-08T11:01:29.655Z,99199.78
2022-10-08T11:04:04.479Z,99186.50
2022-10-08T11:06:52.138Z,99193.34
2022-10-08T11:09:28.570Z,99198.38
2022-10-08T11:12:02.628Z,99195.81
2022-10-08T11:14:44.589Z,99201.59
2022-10-08T11:17:29.925Z,99195.31
2022-10-08T11:20:24.371Z,99194.53
2022-10-08T11:23:03.365Z,99190.34
2022-10-08T11:26:02.700Z,99203.84
2022-10-08T11:28:36.766Z,99198.03
2022-10-08T11:31:12.813Z,99190.94
2022-10-08T11:33:41.478Z,99191.38
2022-10-08T11:36:21.594Z,99189.50
2022-10-08T11:38:55.197Z,99190.72
2022-10-08T11:41:30.446Z,99199.41
2022-10-08T11:44:02.351Z,99191.13
2022-10-08T11:46:31.837Z,99190.22
2022-10-08T11:49:01.726Z,99188.50
2022-10-08T11:51:33.384Z,99195.66
2022-10-08T11:54:16.708Z,99195.56
2022-10-08T11:56:47.376Z,99194.91
2022-10-08T11:59:32.840Z,99197.63
2022-10-08T12:02:06.664Z,99187.94
2022-10-08T12:04:36.958Z,99187.31
2022-10-08T12:07:18.269Z,99196.75
2022-10-08T12:10:25.999Z,99199.53
2022-10-08T12:13:04.719Z,99187.72
2022-10-08T12:15:57.090Z,99196.97
2022-10-08T12:18:42.398Z,99184.69
2022-10-08T12:21:50.024Z,99178.50
2022-10-08T12:24:56.375Z,99198.28
2022-10-08T12:27:26.632Z,99196.41
2022-10-08T12:29:55.642Z,99187.97
2022-10-08T12:32:26.109Z,99191.19
2022-10-08T12:34:54.083Z,99189.63
2022-10-08T12:37:47.528Z,99191.88
2022-10-08T12:40:27.131Z,99185.91
2022-10-08T12:43:08.893Z,99190.41
2022-10-08T12:45:47.130Z,99196.72
2022-10-08T12:48:31.964Z,99195.13
2022-10-08T12:51:07.624Z,99197.50
2022-10-08T12:53:35.507Z,99191.31
2022-10-08T12:56:03.480Z,99191.78
2022-10-08T12:58:34.849Z,99194.09
2022-10-08T13:01:06.887Z,99183.97
2022-10-08T13:03:35.983Z,99192.88
2022-10-08T13:06:17.179Z,99188.00
2022-10-08T13:08:45.022Z,99193.09
2022-10-08T13:11:15.015Z,99184.84
2022-10-08T13:13:46.371Z,99185.69
2022-10-08T13:16:16.324Z,99190.25
2022-10-08T13:18:47.678Z,99194.03
2022-10-08T13:21:36.615Z,99195.59
2022-10-08T13:24:21.581Z,99188.41
2022-10-08T13:26:52.023Z,99192.31
2022-10-08T13:29:27.573Z,99194.91
2022-10-08T13:31:57.355Z,99200.34
2022-10-08T13:34:29.845Z,99201.50
2022-10-08T13:37:02.583Z,99194.06
2022-10-08T13:39:34.287Z,99200.19
2022-10-08T13:42:05.193Z,99191.25
2022-10-08T13:44:34.558Z,99197.88
2022-10-08T13:47:03.885Z,99191.47
2022-10-08T13:49:34.557Z,99204.31
2022-10-08T13:52:02.909Z,99203.38
2022-10-08T13:54:32.581Z,99202.44
2022-10-08T13:57:00.812Z,99202.38
2022-10-08T13:59:30.816Z,99199.56
2022-10-08T14:01:58.886Z,99195.84
2022-10-08T14:04:26.927Z,99196.69
2022-10-08T14:06:58.031Z,99195.81
2022-10-08T14:09:28.357Z,99198.66
2022-10-08T14:11:59.332Z,99196.50
2022-10-08T14:14:28.405Z,99189.25
2022-10-08T14:16:56.101Z,99187.16
2022-10-08T14:19:23.870Z,99192.41
2022-10-08T14:21:55.998Z,99184.84
2022-10-08T14:24:25.127Z,99193.78
2022-10-08T14:26:53.379Z,99188.09
2022-10-08T14:29:21.094Z,99195.13
2022-10-08T14:31:48.976Z,99198.72
2022-10-08T14:34:16.714Z,99190.28
2022-10-08T14:36:44.465Z,99188.22
2022-10-08T14:39:12.241Z,99189.47
2022-10-08T14:41:43.829Z,99186.03
2022-10-08T14:44:13.274Z,99195.44
2022-10-08T14:46:40.978Z,99190.91
2022-10-08T14:49:09.115Z,99181.75
2022-10-08T14:51:38.717Z,99194.28
2022-10-08T14:54:07.229Z,99196.22
2022-10-08T14:56:43.688Z,99199.88
2022-10-08T14:59:11.424Z,99199.88
2022-10-08T15:01:39.730Z,99202.53
2022-10-08T15:04:08.341Z,99196.16
2022-10-08T15:06:36.237Z,99202.56
2022-10-08T15:09:03.990Z,99198.66
2022-10-08T15:11:31.842Z,99202.16
2022-10-08T15:14:00.960Z,99198.03
2022-10-08T15:16:28.855Z,99209.56
2022-10-08T15:18:56.643Z,99203.41
2022-10-08T15:21:26.440Z,99201.16
2022-10-08T15:23:56.664Z,99197.09
2022-10-08T15:26:25.286Z,99196.56
2022-10-08T15:28:53.669Z,99194.81
2022-10-08T15:31:24.887Z,99208.34
2022-10-08T15:33:56.049Z,99204.44
2022-10-08T15:36:25.850Z,99201.00
2022-10-08T15:38:58.275Z,99205.53
2022-10-08T15:41:27.021Z,99212.56
2022-10-08T15:43:54.861Z,99213.72
2022-10-08T15:46:26.046Z,99220.66
2022-10-08T15:48:58.110Z,99216.47
2022-10-08T15:51:26.173Z,99217.66
2022-10-08T15:53:54.093Z,99226.00
2022-10-08T15:56:21.996Z,99221.88
2022-10-08T15:58:51.207Z,99224.97
2022-10-08T16:01:20.997Z,99225.19
2022-10-08T16:03:51.618Z,99231.91
2022-10-08T16:06:21.708Z,99232.00
2022-10-08T16:08:49.531Z,99241.28
2022-10-08T16:11:19.756Z,99237.25
2022-10-08T16:13:49.682Z,99240.78
2022-10-08T16:16:18.154Z,99236.72
2022-10-08T16:18:47.218Z,99244.31
2022-10-08T16:21:16.290Z,99240.28
2022-10-08T16:23:44.439Z,99240.66
2022-10-08T16:26:14.366Z,99249.69
2022-10-08T16:28:42.421Z,99252.94
2022-10-08T16:31:11.430Z,99258.84
2022-10-08T16:33:39.420Z,99263.56
2022-10-08T16:36:08.961Z,99268.25
2022-10-08T16:38:41.909Z,99271.00
2022-10-08T16:41:14.539Z,99274.78
2022-10-08T16:43:42.562Z,99278.06
2022-10-08T16:46:15.345Z,99277.53
2022-10-08T16:48:43.164Z,99283.88
2022-10-08T16:51:11.601Z,99277.59
2022-10-08T16:53:40.821Z,99280.91
2022-10-08T16:56:08.592Z,99286.03
2022-10-08T16:58:36.313Z,99285.88
2022-10-08T17:01:08.525Z,99291.19
2022-10-08T17:03:37.027Z,99295.31
2022-10-08T17:06:05.514Z,99294.91
2022-10-08T17:08:33.248Z,99307.94
2022-10-08T17:11:06.449Z,99301.75
2022-10-08T17:13:34.785Z,99306.94
2022-10-08T17:16:04.254Z,99313.13
2022-10-08T17:18:33.184Z,99315.09
2022-10-08T17:21:01.806Z,99318.84
2022-10-08T17:23:36.772Z,99317.00
2022-10-08T17:26:08.349Z,99328.53
2022-10-08T17:28:38.334Z,99337.16
2022-10-08T17:31:09.707Z,99338.50
2022-10-08T17:33:37.641Z,99340.75
2022-10-08T17:36:07.341Z,99331.75
2022-10-08T17:38:35.950Z,99347.56
2022-10-08T17:41:12.885Z,99348.44
2022-10-08T17:43:40.754Z,99339.47
2022-10-08T17:46:10.267Z,99349.91
2022-10-08T17:48:38.361Z,99355.06
2022-10-08T17:51:07.281Z,99363.78
2022-10-08T17:53:35.142Z,99362.31
2022-10-08T17:56:05.946Z,99363.75
2022-10-08T17:58:35.787Z,99364.00
2022-10-08T18:01:08.908Z,99368.38
2022-10-08T18:03:38.031Z,99376.63
2022-10-08T18:06:07.398Z,99379.22
2022-10-08T18:08:35.252Z,99387.44
2022-10-08T18:11:04.167Z,99383.75
2022-10-08T18:13:32.091Z,99388.66
2022-10-08T18:16:05.563Z,99385.47
2022-10-08T18:18:34.182Z,99398.09
2022-10-08T18:21:02.684Z,99390.47
2022-10-08T18:23:31.126Z,99401.38
2022-10-08T18:26:08.246Z,99401.69
2022-10-08T18:28:36.253Z,99401.50
2022-10-08T18:31:06.621Z,99409.97
2022-10-08T18:33:36.012Z,99407.19
2022-10-08T18:36:12.431Z,99418.09
2022-10-08T18:38:44.025Z,99417.81
2022-10-08T18:41:13.521Z,99413.09
2022-10-08T18:43:41.624Z,99425.94
2022-10-08T18:46:10.936Z,99430.41
2022-10-08T18:48:39.128Z,99439.00
2022-10-08T18:51:08.616Z,99439.47
2022-10-08T18:53:37.988Z,99436.34
2022-10-08T18:56:09.895Z,99430.91
2022-10-08T18:58:38.055Z,99431.38
2022-10-08T19:01:07.178Z,99430.06
2022-10-08T19:03:36.324Z,99429.66
2022-10-08T19:10:22.030Z,99440.19
2022-10-08T19:12:50.117Z,99449.69
2022-10-08T19:15:18.036Z,99453.66
2022-10-08T19:17:45.699Z,99451.03
2022-10-08T19:20:14.809Z,99451.31
2022-10-08T19:22:42.494Z,99451.44
2022-10-08T19:25:12.345Z,99450.84
2022-10-08T19:27:40.049Z,99456.44
2022-10-08T19:30:08.668Z,99458.53
2022-10-08T19:32:36.370Z,99463.53
2022-10-08T19:35:04.182Z,99460.47
2022-10-08T19:37:33.221Z,99468.75
2022-10-08T19:40:01.152Z,99473.13
2022-10-08T19:42:28.836Z,99475.38
2022-10-08T19:44:56.599Z,99472.03
2022-10-08T19:47:24.291Z,99469.91
2022-10-08T19:49:52.069Z,99476.44
2022-10-08T19:52:19.766Z,99480.84
2022-10-08T19:54:48.836Z,99487.13
2022-10-08T19:57:16.530Z,99484.69
2022-10-08T19:59:44.281Z,99494.84
2022-10-08T20:02:12.056Z,99500.41
2022-10-08T20:04:39.776Z,99496.03
2022-10-08T20:07:07.439Z,99498.84
2022-10-08T20:09:36.150Z,99509.06
2022-10-08T20:12:05.288Z,99507.31
2022-10-08T20:14:33.156Z,99504.97
2022-10-08T20:17:00.960Z,99509.84
2022-10-08T20:19:28.665Z,99504.56
2022-10-08T20:21:56.492Z,99506.47
2022-10-08T20:24:24.335Z,99507.50
2022-10-08T20:26:52.068Z,99510.66
2022-10-08T20:29:27.439Z,99506.72
2022-10-08T20:31:58.024Z,99514.94
2022-10-08T20:34:28.719Z,99517.16
2022-10-08T20:36:57.899Z,99511.56
2022-10-08T20:39:25.686Z,99513.63
2022-10-08T20:41:55.735Z,99515.06
2022-10-08T20:44:26.994Z,99508.59
2022-10-08T20:46:55.028Z,99515.81
2022-10-08T20:49:22.756Z,99515.06
2022-10-08T20:51:50.424Z,99518.56
2022-10-08T20:54:18.373Z,99530.22
2022-10-08T20:56:46.428Z,99529.41
2022-10-08T20:59:16.856Z,99525.63
2022-10-08T21:01:50.092Z,99527.94
2022-10-08T21:04:17.883Z,99525.56
2022-10-08T21:06:47.014Z,99528.00
2022-10-08T21:09:15.860Z,99526.69
2022-10-08T21:11:45.854Z,99528.63
2022-10-08T21:14:16.869Z,99525.47
2022-10-08T21:16:45.282Z,99523.78
2022-10-08T21:19:19.190Z,99528.53
2022-10-08T21:21:46.982Z,99524.22
2022-10-08T21:24:14.896Z,99523.03
2022-10-08T21:26:43.519Z,99536.16
2022-10-08T21:29:13.850Z,99531.66
2022-10-08T21:31:42.865Z,99542.66
2022-10-08T21:34:11.991Z,99542.09
2022-10-08T21:36:42.232Z,99542.78
2022-10-08T21:39:16.968Z,99539.25
2022-10-08T21:41:44.947Z,99546.38
2022-10-08T21:44:13.151Z,99547.69
2022-10-08T21:46:43.298Z,99544.03
2022-10-08T21:49:15.409Z,99546.91
2022-10-08T21:51:45.576Z,99545.38
2022-10-08T21:54:14.905Z,99545.38
2022-10-08T21:56:45.427Z,99549.66
2022-10-08T21:59:16.716Z,99550.75
2022-10-08T22:01:46.355Z,99554.59
2022-10-08T22:04:16.229Z,99542.81
2022-10-08T22:06:47.875Z,99551.09
2022-10-08T22:09:18.095Z,99545.25
2022-10-08T22:11:46.290Z,99541.22
2022-10-08T22:14:14.084Z,99538.63
2022-10-08T22:16:42.008Z,99544.16
2022-10-08T22:19:10.399Z,99539.31
2022-10-08T22:21:38.840Z,99541.97
2022-10-08T22:24:08.755Z,99536.28
2022-10-08T22:26:38.889Z,99539.22
2022-10-08T22:29:07.448Z,99535.31
2022-10-08T22:31:35.774Z,99545.31
2022-10-08T22:34:03.584Z,99537.47
2022-10-08T22:36:32.661Z,99540.69
2022-10-08T22:39:01.000Z,99540.13
2022-10-08T22:41:33.469Z,99545.13
2022-10-08T22:44:02.605Z,99547.50
2022-10-08T22:46:32.969Z,99547.59
2022-10-08T22:49:03.220Z,99546.28
2022-10-08T22:51:31.191Z,99537.13
2022-10-08T22:53:59.094Z,99537.94
2022-10-08T22:56:28.775Z,99540.50
2022-10-08T22:58:59.267Z,99533.69
2022-10-08T23:01:28.657Z,99542.19
2022-10-08T23:03:59.072Z,99543.50
2022-10-08T23:06:29.208Z,99538.66
2022-10-08T23:08:59.018Z,99535.72
2022-10-08T23:11:27.680Z,99535.94
2022-10-08T23:13:58.219Z,99535.53
2022-10-08T23:16:28.483Z,99532.19
2022-10-08T23:18:57.737Z,99529.94
2022-10-08T23:21:26.534Z,99528.81
2022-10-08T23:23:55.017Z,99524.19
2022-10-08T23:26:24.058Z,99535.66
2022-10-08T23:28:53.040Z,99530.13
2022-10-08T23:31:24.307Z,99528.41
2022-10-08T23:33:53.606Z,99537.28
2022-10-08T23:36:24.321Z,99532.56
2022-10-08T23:38:52.841Z,99526.34
2022-10-08T23:41:20.827Z,99532.56
2022-10-08T23:43:50.342Z,99524.28
2022-10-08T23:46:19.948Z,99529.81
2022-10-08T23:48:49.826Z,99532.75
2022-10-08T23:51:20.937Z,99532.38
2022-10-08T23:53:49.287Z,99531.91
2022-10-08T23:56:17.116Z,99532.88
2022-10-08T23:58:45.067Z,99524.44
